AirNav   BOSE A20 Aviation Headset
 
 1209 users online  

2R6 Bunkie Municipal Airport
Bunkie, Louisiana, USA

GOING TO BUNKIE?


FAA INFORMATION EFFECTIVE 24 MAY 2018

Location

FAA Identifier: 2R6
Lat/Long: 30-57-24.2900N / 092-14-02.7590W
30-57.404833N / 092-14.045983W
30.9567472 / -92.2340997
(estimated)
Elevation: 62 ft. / 18.9 m (surveyed)
Variation: 01E (2010)
From city: 2 miles S of BUNKIE, LA
Time zone: UTC -5 (UTC -6 during Standard Time)
Zip code: 71322

Airport Operations

Airport use: Open to the public
Activation date: 03/1950
Control tower: no
ARTCC: HOUSTON CENTER
FSS: DE RIDDER FLIGHT SERVICE STATION
NOTAMs facility: DRI (NOTAM-D service available)
Attendance: UNATNDD
Wind indicator: lighted
Segmented circle: no
Lights: DUSK-DAWN. MIRL RY 18/36, REIL RYS 18 & 36 PRESET LOW INTST DUSK-DAWN; TO INCR INTST ACTVT - CTAF.
Beacon: white-green (lighted land airport)
Operates sunset to sunrise.

Airport Communications

CTAF: 122.9
POLK APPROACH: 125.4
POLK DEPARTURE: 125.4

Nearby radio navigation aids

VOR radial/distance  VOR name  Freq  Var
AEXr140/22.6ALEXANDRIA VORTAC116.1003E

 
NDB name  Hdg/Dist  Freq  Var  ID
DURALDE023/26.226302EECY . -.-. -.--
OAKDALE048/30.137903ELRR .-.. .-. .-.

Airport Services

Parking: hangars and tiedowns
Airframe service: NONE
Powerplant service: NONE
Bottled oxygen: NONE
Bulk oxygen: NONE

Runway Information

Runway 18/36

Dimensions: 3005 x 75 ft. / 916 x 23 m
Surface: asphalt, in good condition
Weight bearing capacity: 
Single wheel: 8.0
Runway edge lights: medium intensity
RUNWAY 18  RUNWAY 36
Latitude: 30-57.652300N30-57.156633N
Longitude: 092-14.045783W092-14.044583W
Elevation: 59.0 ft.59.0 ft.
Traffic pattern: leftleft
Runway heading: 179 magnetic, 180 true359 magnetic, 360 true
Markings: nonprecision, in good conditionnonprecision, in good condition
Visual slope indicator: 2-light PAPI on left (3.00 degrees glide path)2-light PAPI on left (3.25 degrees glide path)
Runway end identifier lights: yesyes
Touchdown point: yes, no lightsyes, no lights
Obstructions: none97 ft. trees, 2752 ft. from runway, 397 ft. left of centerline, 26:1 slope to clear

Airport Ownership and Management from official FAA records

Ownership: Publicly-owned
Owner: TOWN OF BUNKIE
PO BOX 630
BUNKIE, LA 71322
Phone 318-346-7663
Manager: FRED VOLLMAN
PO BOX 220
BUNKIE, LA 71322
Phone 318-346-2371

Airport Operational Statistics

Aircraft based on the field: 8
Single engine airplanes: 6
Ultralights: 2
    
Aircraft operations: avg 125/week *
69% local general aviation
31% transient general aviation
* for 12-month period ending 04 August 2017

Additional Remarks

100LL EMERG FUEL AVBL CALL 318-346-2371.

Instrument Procedures

NOTE: All procedures below are presented as PDF files. If you need a reader for these files, you should download the free Adobe Reader.

NOT FOR NAVIGATION. Please procure official charts for flight.
FAA instrument procedures published for use from 24 May 2018 at 0901Z to 21 June 2018 at 0900Z.

 
IAPs - Instrument Approach Procedures
RNAV (GPS) RWY 18   download (178KB)
RNAV (GPS) RWY 36   download (171KB)
VOR/DME-A   download (165KB)
NOTE: Special Take-Off Minimums/Departure Procedures apply   download (116KB)

Other nearby airports with instrument procedures:

KMKV - Marksville Municipal Airport (12 nm NE)
KOPL - St Landry Parish Airport-Ahart Field (25 nm S)
KACP - Allen Parish Airport (26 nm SW)
KESF - Esler Regional Airport (26 nm N)
KAEX - Alexandria International Airport (27 nm NW)
 
Loc | Ops | Rwys | IFR | FBO | Links
Com | Nav | Svcs | Stats | Notes

AirNav Hotels Sweepstakes
 
Area around 2R6 (Bunkie Municipal Airport)
 
Road maps at: MapQuest Bing Google
 
Aerial photo
WARNING: Photo may not be current or correct
Aerial photo of 2R6 (Bunkie Municipal Airport)
Photo taken 11-Sep-2010
looking north.

Do you have a better or more recent aerial photo of Bunkie Municipal Airport that you would like to share? If so, please send us your photo.

 
Sectional chart

 
Airport distance calculator
Flying to Bunkie Municipal Airport? Find the distance to fly.

From to 2R6

Sunrise and sunset
Times for 25-May-2018
 Local
(UTC-5)
 Zulu
(UTC)
Morning civil twilight05:4210:42
Sunrise06:0911:09
Sunset20:0201:02
Evening civil twilight20:2901:29

Current date and time
Zulu (UTC)  25-May-2018 20:57:16
Local (UTC-5)  25-May-2018 15:57:16
 
METAR
KOPL 
25nm S 
252035Z AUTO 10SM VCTS BKN045 BKN080 BKN110 25/20 A2994 RMK AO2 LTG DSNT E THRU SW T02530204
KACP 
26nm SW 
252035Z AUTO 18006KT 10SM SCT050 BKN065 BKN085 31/22 A2991 RMK AO2 LTG DSNT E SE AND NW T03070224
KESF 
27nm N 
252053Z AUTO 12005KT 10SM FEW045 FEW065 SCT085 31/23 A2989 RMK AO2 LTG DSNT N SLP120 60000 T03060228 56013
KAEX 
28nm NW 
252053Z VRB05KT 10SM FEW055 33/18 A2987 RMK AO2 LTG DSNT NE SLP117 T03330183 56025
KBKB 
35nm W 
252054Z AUTO 00000KT 10SM CLR 31/21 A2988 RMK AO2 SLP141 T03060211 56021 $
KPOE 
40nm W 
251955Z 16003KT 10SM BKN050 32/16 A2995 RMK A02A SLP137 WND DATA ESTMD T03230158
KHZR 
41nm E 
252035Z AUTO 17009KT 10SM SCT050 SCT100 30/19 A2992 RMK AO2 LTG DSNT ALQS T02980190
KLFT 
47nm S 
252053Z 00000KT 10SM VCTS SCT006 SCT055 SCT070 24/23 A2994 RMK AO2 LTG DSNT N AND NW RAE35 SLP137 P0000 60096 T02440228 58010
K3R7 
48nm SW 
252055Z AUTO 17008KT 10SM CLR 29/22 A2992 RMK AO2 LTG DSNT NE 60001 T02940217
TAF
KAEX 
28nm NW 
251720Z 2518/2618 VRB03KT P6SM VCTS FEW025CB SCT040 BKN080 TEMPO 2520/2524 VRB20G35KT 2SM SHRA BKN030 FM260200 VRB03KT P6SM SCT120
NOTAMs
Click for the latest NOTAMs
NOTAMs are issued by the DoD/FAA and will open in a separate window not controlled by AirNav.

 

 
 

Would you like to see your business listed on this page?

 If your business provides an interesting product or service to pilots, flight crews, aircraft, or users of the Bunkie Municipal Airport, you should consider listing it here.  To start the listing process, click on the button below
 
Add a business
 

Other Pages about Bunkie Municipal Airport

Update a link
 
Copyright © AirNav, LLC. All rights reserved. Privacy Policy  Contact